Time;durP1;ratioP1;P1;durP2;ratioP2;P2;SDS_P1;SDS_P2;PMS_P1;PMS_P2;Temp;Humidity;BMP_temperature;BMP_pressure;BME280_temperature;BME280_humidity;BME280_pressure;Samples;Min_cycle;Max_cycle;Signal;HPM_P1;HPM_P2
2022/08/12 00:44:47;;;;;;;1.55;1.45;;;24.80;53.90;;;;;;5011446;28;20173;-68
2022/08/12 00:47:13;;;;;;;1.80;1.70;;;24.80;53.90;;;;;;5012273;28;20222;-68
2022/08/12 00:49:39;;;;;;;2.22;1.80;;;24.80;53.90;;;;;;5012105;28;20196;-68
2022/08/12 00:52:05;;;;;;;1.80;1.70;;;24.80;53.90;;;;;;5011191;28;20638;-68
2022/08/12 00:54:51;;;;;;;1.67;1.58;;;24.80;53.90;;;;;;5012277;28;20173;-69
2022/08/12 00:57:21;;;;;;;2.00;1.80;;;24.80;53.90;;;;;;5011622;28;20219;-69
2022/08/12 00:59:53;;;;;;;3.17;1.85;;;24.80;53.90;;;;;;5011165;28;20176;-68
2022/08/12 01:02:45;;;;;;;1.98;1.88;;;24.80;54.00;;;;;;5012159;28;20262;-69
2022/08/12 01:13:30;;;;;;;2.05;1.83;;;24.70;53.90;;;;;;5015089;28;20211;-70
2022/08/12 01:15:58;;;;;;;1.75;1.50;;;24.80;53.90;;;;;;5015571;28;20201;-68
2022/08/12 01:18:26;;;;;;;1.70;1.60;;;24.70;53.90;;;;;;5015531;28;20215;-68
2022/08/12 01:21:15;;;;;;;1.80;1.70;;;24.80;53.90;;;;;;5014671;28;20180;-68
2022/08/12 01:24:12;;;;;;;1.85;1.75;;;24.80;53.90;;;;;;5015482;28;20592;-68
2022/08/12 01:26:38;;;;;;;2.10;1.88;;;24.70;53.90;;;;;;5013392;28;20520;-68
2022/08/12 01:29:04;;;;;;;1.83;1.73;;;24.70;54.00;;;;;;5015208;28;20188;-68
2022/08/12 01:31:29;;;;;;;1.80;1.70;;;24.70;53.90;;;;;;5014261;28;20182;-69
2022/08/12 01:34:04;;;;;;;1.90;1.80;;;24.80;53.90;;;;;;5013220;28;20212;-69
2022/08/12 01:36:40;;;;;;;2.20;2.00;;;24.70;53.80;;;;;;5014216;28;20176;-68
2022/08/12 01:39:05;;;;;;;2.17;1.55;;;24.70;53.90;;;;;;5015096;28;20172;-69
2022/08/12 01:41:31;;;;;;;1.70;1.60;;;24.70;53.80;;;;;;5014431;28;20246;-69
2022/08/12 01:43:59;;;;;;;3.90;1.70;;;24.70;53.90;;;;;;5013643;28;20172;-69
2022/08/12 01:46:42;;;;;;;2.10;1.90;;;24.70;53.90;;;;;;5013879;28;20286;-68
2022/08/12 01:49:43;;;;;;;2.08;1.73;;;24.70;53.90;;;;;;5013123;28;20183;-68
2022/08/12 01:52:08;;;;;;;1.58;1.48;;;24.70;53.90;;;;;;5013963;28;20176;-69
2022/08/12 01:54:38;;;;;;;1.73;1.63;;;24.70;54.00;;;;;;5013161;28;20184;-68
2022/08/12 01:57:12;;;;;;;2.35;1.70;;;24.70;53.90;;;;;;4997272;28;20203;-68
2022/08/12 01:59:58;;;;;;;2.50;1.80;;;24.70;53.90;;;;;;5014697;28;20533;-68
2022/08/12 02:02:29;;;;;;;2.72;1.48;;;24.70;53.80;;;;;;5013918;28;20620;-70
2022/08/12 02:11:33;;;;;;;1.85;1.75;;;24.70;54.00;;;;;;5013578;28;20586;-70
2022/08/12 02:14:13;;;;;;;1.58;1.48;;;24.60;54.00;;;;;;4938182;29;20261;-68
2022/08/12 02:16:45;;;;;;;1.75;1.65;;;24.70;54.00;;;;;;5008391;28;20212;-69
2022/08/12 02:19:48;;;;;;;2.00;1.85;;;24.70;54.00;;;;;;5014523;28;20315;-70
2022/08/12 02:22:35;;;;;;;2.00;1.90;;;24.70;54.00;;;;;;5014390;28;20594;-69
2022/08/12 02:25:37;;;;;;;1.85;1.75;;;24.70;54.00;;;;;;5013711;28;20181;-68
2022/08/12 02:28:03;;;;;;;2.60;1.75;;;24.60;54.00;;;;;;4953949;29;20592;-68
2022/08/12 02:30:30;;;;;;;1.65;1.50;;;24.60;54.10;;;;;;5001452;28;20180;-70
2022/08/12 02:32:56;;;;;;;1.90;1.80;;;24.70;54.10;;;;;;5014593;28;20219;-69
2022/08/12 02:35:23;;;;;;;1.90;1.80;;;24.60;54.20;;;;;;5013354;28;20173;-69
2022/08/12 02:37:51;;;;;;;2.10;1.90;;;24.60;54.10;;;;;;5013374;28;20168;-68
2022/08/12 02:40:18;;;;;;;2.28;1.73;;;24.60;54.10;;;;;;5014440;28;20193;-70
2022/08/12 02:43:11;;;;;;;1.80;1.70;;;24.60;54.20;;;;;;5013869;28;20640;-68
2022/08/12 02:45:50;;;;;;;2.15;2.05;;;24.60;54.20;;;;;;4985839;28;20212;-67
2022/08/12 02:48:43;;;;;;;2.15;1.95;;;24.60;54.20;;;;;;5012870;28;20262;-68
2022/08/12 02:51:09;;;;;;;1.80;1.70;;;24.60;54.20;;;;;;5013461;28;20180;-68
2022/08/12 02:53:35;;;;;;;1.80;1.70;;;24.60;54.20;;;;;;5012755;28;20605;-68
2022/08/12 02:56:04;;;;;;;1.77;1.67;;;24.60;54.30;;;;;;5013731;28;20184;-68
2022/08/12 02:58:34;;;;;;;2.58;2.00;;;24.60;54.30;;;;;;5013285;28;20177;-68
2022/08/12 03:01:02;;;;;;;2.38;1.90;;;24.60;54.30;;;;;;5013703;28;20188;-69
2022/08/12 03:03:32;;;;;;;2.08;1.98;;;24.60;54.30;;;;;;5013960;28;20180;-70
2022/08/12 03:06:05;;;;;;;2.00;1.90;;;24.60;54.30;;;;;;5012917;28;20259;-69
2022/08/12 03:08:38;;;;;;;2.00;1.90;;;24.60;54.30;;;;;;5013000;28;20184;-71
2022/08/12 03:11:08;;;;;;;2.38;2.00;;;24.60;54.30;;;;;;5013632;28;20484;-69
2022/08/12 03:13:35;;;;;;;1.83;1.73;;;24.60;54.40;;;;;;5012212;28;20184;-70
2022/08/12 03:16:00;;;;;;;2.17;1.98;;;24.60;54.30;;;;;;5012148;28;20641;-69
2022/08/12 03:18:30;;;;;;;2.17;1.92;;;24.60;54.40;;;;;;5012352;28;20226;-69
2022/08/12 03:20:57;;;;;;;2.08;1.98;;;24.60;54.40;;;;;;5012538;28;20267;-69
2022/08/12 03:23:22;;;;;;;2.08;1.98;;;24.60;54.40;;;;;;5013432;28;20185;-69
2022/08/12 03:25:50;;;;;;;1.70;1.60;;;24.60;54.40;;;;;;5013161;28;20650;-69
2022/08/12 03:28:49;;;;;;;2.42;2.22;;;24.60;54.40;;;;;;5012513;28;20635;-69
2022/08/12 03:31:05;;;;;;;2.03;1.92;;;24.60;54.40;;;;;;5012076;28;20702;-68
2022/08/12 03:33:36;;;;;;;2.15;1.70;;;24.60;54.40;;;;;;5012452;28;20176;-69
2022/08/12 03:36:06;;;;;;;3.95;2.30;;;24.60;54.40;;;;;;5012995;28;20207;-69
2022/08/12 03:38:35;;;;;;;2.35;1.83;;;24.60;54.50;;;;;;5013303;28;20259;-69
2022/08/12 04:00:29;;;;;;;2.60;2.08;;;24.60;54.50;;;;;;5012842;28;20223;-70
2022/08/12 04:03:01;;;;;;;2.38;2.10;;;24.50;54.50;;;;;;5011849;28;20196;-69
2022/08/12 04:05:30;;;;;;;1.85;1.75;;;24.50;54.60;;;;;;5012543;28;20177;-72
2022/08/12 04:07:56;;;;;;;2.63;2.00;;;24.50;54.50;;;;;;5012527;28;20220;-71
2022/08/12 04:13:13;;;;;;;2.10;1.90;;;24.50;54.50;;;;;;5011725;28;20232;-71
2022/08/12 04:13:18;;;;;;;2.08;1.98;;;24.50;54.60;;;;;;5012452;28;20271;-70
2022/08/12 04:15:46;;;;;;;1.88;1.73;;;24.50;54.50;;;;;;5010542;28;20183;-70
2022/08/12 04:18:12;;;;;;;2.00;1.90;;;24.50;54.60;;;;;;5012688;28;20238;-71
2022/08/12 04:20:41;;;;;;;1.90;1.80;;;24.50;54.50;;;;;;5012558;28;20198;-69
2022/08/12 04:23:07;;;;;;;2.00;1.90;;;24.50;54.50;;;;;;5010566;28;20185;-70
2022/08/12 04:25:34;;;;;;;2.40;2.03;;;24.50;54.50;;;;;;5011280;28;20200;-70
2022/08/12 04:28:00;;;;;;;1.90;1.80;;;24.50;54.50;;;;;;5010815;28;20208;-70
2022/08/12 04:30:26;;;;;;;2.17;2.05;;;24.50;54.50;;;;;;5011822;28;20176;-70
2022/08/12 04:32:52;;;;;;;1.80;1.70;;;24.50;54.60;;;;;;5010841;28;20180;-70
2022/08/12 04:35:18;;;;;;;2.40;2.13;;;24.50;54.60;;;;;;5012398;28;20179;-71
2022/08/12 04:37:52;;;;;;;2.00;1.90;;;24.50;54.60;;;;;;5010474;28;20180;-70
2022/08/12 04:40:20;;;;;;;2.30;2.20;;;24.50;54.60;;;;;;5014527;28;20178;-70
2022/08/12 04:42:46;;;;;;;1.90;1.80;;;24.50;54.60;;;;;;5014919;28;20183;-69
2022/08/12 04:45:11;;;;;;;2.17;2.08;;;24.50;54.50;;;;;;5015833;28;20172;-69
2022/08/12 04:47:37;;;;;;;3.17;2.20;;;24.50;54.60;;;;;;5016313;28;20523;-69
2022/08/12 04:50:02;;;;;;;2.20;2.00;;;24.50;54.60;;;;;;5014576;28;20555;-69
2022/08/12 04:52:28;;;;;;;1.77;1.67;;;24.50;54.60;;;;;;5015496;28;20206;-70
2022/08/12 04:54:54;;;;;;;2.00;1.90;;;24.50;54.60;;;;;;5014601;28;20584;-69
2022/08/12 04:57:19;;;;;;;2.53;2.33;;;24.50;54.60;;;;;;5015973;28;20184;-70
2022/08/12 04:59:45;;;;;;;2.03;1.92;;;24.50;54.60;;;;;;5015098;28;20172;-69
2022/08/12 05:02:10;;;;;;;2.28;2.08;;;24.50;54.50;;;;;;5016137;28;20231;-72
2022/08/12 05:04:36;;;;;;;2.17;2.08;;;24.50;54.60;;;;;;5015347;28;20633;-71
2022/08/12 05:07:02;;;;;;;2.58;2.38;;;24.50;54.50;;;;;;5015611;28;20567;-71
2022/08/12 05:09:27;;;;;;;2.03;1.92;;;24.50;54.60;;;;;;5015923;28;20212;-72
2022/08/12 05:11:54;;;;;;;2.05;1.95;;;24.50;54.50;;;;;;5014778;28;20208;-70
2022/08/12 05:14:19;;;;;;;1.98;1.83;;;24.50;54.50;;;;;;5015908;28;20187;-71
2022/08/12 05:16:45;;;;;;;1.98;1.88;;;24.50;54.50;;;;;;5015757;28;20263;-71
2022/08/12 05:19:12;;;;;;;2.13;1.92;;;24.50;54.50;;;;;;5015313;28;20256;-70
2022/08/12 05:21:37;;;;;;;2.20;2.10;;;24.50;54.40;;;;;;5015425;28;20638;-70
2022/08/12 05:24:03;;;;;;;2.15;2.05;;;24.50;54.50;;;;;;5015499;28;20337;-70
2022/08/12 05:26:28;;;;;;;2.00;1.90;;;24.50;54.50;;;;;;5014666;28;20322;-71
2022/08/12 05:28:55;;;;;;;2.28;2.05;;;24.60;54.50;;;;;;5015524;28;20596;-70
2022/08/12 05:31:20;;;;;;;2.30;2.10;;;24.50;54.40;;;;;;5015653;28;20184;-71
2022/08/12 05:33:46;;;;;;;2.30;2.08;;;24.50;54.50;;;;;;5013427;28;20176;-71
2022/08/12 05:36:13;;;;;;;2.00;1.90;;;24.50;54.50;;;;;;5015285;28;20318;-71
2022/08/12 05:38:55;;;;;;;2.28;2.17;;;24.50;54.50;;;;;;5015256;28;20648;-71
2022/08/12 05:41:27;;;;;;;2.20;2.00;;;24.60;54.50;;;;;;5014464;28;20641;-71
2022/08/12 05:43:59;;;;;;;2.15;1.95;;;24.60;54.50;;;;;;5014954;28;20255;-70
2022/08/12 05:46:25;;;;;;;2.50;2.30;;;24.60;54.50;;;;;;5015125;28;20220;-71
2022/08/12 05:48:53;;;;;;;2.42;2.22;;;24.50;54.40;;;;;;5014336;28;20186;-69
2022/08/12 05:51:19;;;;;;;2.13;2.03;;;24.50;54.40;;;;;;5013894;28;20259;-70
2022/08/12 05:53:45;;;;;;;2.10;2.00;;;24.50;54.40;;;;;;5014136;28;20173;-70
2022/08/12 05:56:30;;;;;;;2.35;2.15;;;24.50;54.40;;;;;;5015076;28;20183;-70
2022/08/12 05:58:56;;;;;;;2.15;2.03;;;24.60;54.40;;;;;;5014706;28;20255;-69
2022/08/12 06:01:22;;;;;;;2.63;2.10;;;24.60;54.40;;;;;;5014274;28;20262;-71
2022/08/12 06:03:49;;;;;;;2.22;2.03;;;24.60;54.30;;;;;;5014692;28;20181;-71
2022/08/12 06:06:15;;;;;;;2.20;2.00;;;24.60;54.30;;;;;;5014420;28;20564;-74
2022/08/12 06:08:47;;;;;;;1.90;1.80;;;24.60;54.30;;;;;;5014249;28;20183;-70
2022/08/12 06:11:14;;;;;;;2.10;2.00;;;24.60;54.20;;;;;;5014362;28;20224;-71
2022/08/12 06:13:41;;;;;;;2.30;2.10;;;24.60;54.20;;;;;;5014480;28;20185;-70
2022/08/12 06:16:07;;;;;;;2.40;2.20;;;24.60;54.20;;;;;;5013569;28;20192;-71
2022/08/12 06:18:32;;;;;;;2.40;2.20;;;24.60;54.20;;;;;;5014140;28;20266;-71
2022/08/12 06:20:58;;;;;;;2.67;2.47;;;24.60;54.20;;;;;;5014332;28;20168;-71
2022/08/12 06:23:27;;;;;;;2.38;2.05;;;24.60;54.20;;;;;;5013825;28;20177;-71
2022/08/12 06:25:55;;;;;;;1.88;1.77;;;24.60;54.20;;;;;;5014263;28;20184;-70
2022/08/12 06:28:21;;;;;;;2.20;1.95;;;24.60;54.10;;;;;;5014482;28;20270;-69
2022/08/12 06:30:47;;;;;;;2.65;2.00;;;24.60;54.00;;;;;;5013438;28;20196;-69
2022/08/12 06:33:13;;;;;;;2.17;1.98;;;24.60;53.90;;;;;;5014149;28;20177;-71
2022/08/12 06:35:41;;;;;;;3.25;2.17;;;24.60;54.00;;;;;;5014157;28;20181;-70
2022/08/12 06:38:33;;;;;;;2.38;2.22;;;24.70;54.00;;;;;;5013209;28;20169;-70
2022/08/12 06:43:44;;;;;;;3.13;2.33;;;24.70;53.80;;;;;;5013320;28;20195;-68
2022/08/12 06:46:12;;;;;;;2.78;2.50;;;24.60;53.70;;;;;;5014028;28;20210;-69
2022/08/12 06:48:40;;;;;;;2.70;2.50;;;24.70;53.70;;;;;;5013779;28;20639;-68
2022/08/12 06:51:07;;;;;;;3.67;2.60;;;24.80;53.70;;;;;;5013039;28;20183;-68
2022/08/12 06:53:32;;;;;;;2.28;2.08;;;24.70;53.60;;;;;;5013878;28;20223;-71
2022/08/12 06:55:59;;;;;;;4.57;2.75;;;24.70;53.60;;;;;;5013793;28;20176;-71
2022/08/12 06:58:28;;;;;;;2.75;2.55;;;24.80;54.10;;;;;;5013172;28;20189;-71
2022/08/12 07:00:56;;;;;;;2.45;2.30;;;24.80;54.00;;;;;;5013733;28;20180;-69
2022/08/12 07:03:27;;;;;;;2.80;2.60;;;24.80;53.80;;;;;;5013579;28;20259;-71
2022/08/12 07:06:00;;;;;;;4.45;2.17;;;24.80;53.80;;;;;;5012691;28;20536;-71
2022/08/12 07:08:27;;;;;;;2.42;2.22;;;24.80;53.80;;;;;;5013571;28;20199;-71
2022/08/12 07:11:00;;;;;;;2.72;2.47;;;24.80;53.80;;;;;;5013094;28;20244;-71
2022/08/12 07:13:37;;;;;;;3.83;2.25;;;24.80;53.70;;;;;;5013359;28;20256;-71
2022/08/12 07:16:06;;;;;;;2.78;2.30;;;24.80;53.70;;;;;;5013583;28;20176;-70
2022/08/12 07:18:32;;;;;;;2.47;2.20;;;24.80;53.80;;;;;;5012787;28;20207;-70
2022/08/12 07:20:59;;;;;;;3.05;2.33;;;24.80;53.80;;;;;;5013253;28;20195;-70
2022/08/12 07:23:25;;;;;;;2.47;2.35;;;24.90;53.80;;;;;;5013195;28;20179;-70
2022/08/12 07:25:50;;;;;;;3.35;2.08;;;24.90;53.70;;;;;;5012417;28;20165;-70
2022/08/12 07:28:18;;;;;;;4.05;2.80;;;24.90;53.60;;;;;;5013272;28;20307;-71
2022/08/12 07:30:45;;;;;;;2.72;2.28;;;24.90;53.70;;;;;;5013172;28;20177;-69
2022/08/12 07:33:11;;;;;;;3.05;2.47;;;24.90;53.60;;;;;;5012541;28;20263;-70
2022/08/12 07:35:44;;;;;;;3.08;2.53;;;24.90;53.60;;;;;;5012898;28;20534;-69
2022/08/12 07:38:25;;;;;;;2.20;2.10;;;24.90;53.60;;;;;;5013079;28;20473;-69
2022/08/12 07:41:05;;;;;;;3.35;2.58;;;24.90;53.50;;;;;;5012175;28;20191;-69
2022/08/12 07:43:32;;;;;;;2.17;1.98;;;25.00;53.70;;;;;;5013073;28;20666;-68
2022/08/12 07:45:59;;;;;;;3.20;2.47;;;25.00;53.70;;;;;;5012677;28;20661;-68
2022/08/12 07:48:25;;;;;;;3.67;2.42;;;25.00;53.60;;;;;;5011999;28;20245;-70
2022/08/12 07:50:50;;;;;;;3.88;2.60;;;25.00;53.60;;;;;;5012550;28;20172;-69
2022/08/12 07:53:16;;;;;;;3.92;2.47;;;25.00;53.70;;;;;;5012254;28;20195;-71
2022/08/12 07:55:42;;;;;;;3.28;2.22;;;25.00;53.70;;;;;;5012801;28;20641;-68
2022/08/12 07:58:07;;;;;;;3.35;2.38;;;25.00;53.70;;;;;;5012630;28;20180;-71
2022/08/12 08:00:34;;;;;;;3.80;2.65;;;25.10;53.80;;;;;;5011792;28;20179;-70
2022/08/12 08:03:00;;;;;;;3.63;2.40;;;25.10;53.80;;;;;;5012286;28;20271;-69
2022/08/12 08:05:27;;;;;;;3.30;2.30;;;25.10;54.00;;;;;;5012461;28;20168;-72
2022/08/12 08:07:54;;;;;;;3.85;2.55;;;25.10;54.00;;;;;;5011756;28;20216;-73
2022/08/12 08:10:20;;;;;;;3.58;2.47;;;25.10;53.90;;;;;;5012223;28;20232;-71
2022/08/12 08:13:03;;;;;;;6.22;2.97;;;25.10;54.20;;;;;;5012285;28;20180;-68
2022/08/12 08:15:35;;;;;;;3.45;2.55;;;25.20;53.90;;;;;;5011396;28;20195;-71
2022/08/12 08:18:06;;;;;;;5.72;2.33;;;25.10;54.10;;;;;;5012362;28;20211;-70
2022/08/12 08:20:35;;;;;;;3.33;2.45;;;25.10;54.30;;;;;;5012523;28;20173;-70
2022/08/12 08:23:06;;;;;;;3.03;2.70;;;25.10;54.20;;;;;;5011497;28;20204;-70
2022/08/12 08:25:32;;;;;;;6.90;3.28;;;25.10;54.20;;;;;;5012151;28;20694;-71
2022/08/12 08:27:59;;;;;;;4.57;2.65;;;25.10;54.20;;;;;;5011932;28;20246;-70
2022/08/12 08:30:25;;;;;;;4.60;2.85;;;25.10;54.20;;;;;;5011645;28;20184;-70
2022/08/12 08:32:51;;;;;;;3.92;2.25;;;25.20;54.50;;;;;;5012139;28;20184;-72
2022/08/12 08:35:16;;;;;;;6.95;2.60;;;25.20;54.30;;;;;;5012426;28;20179;-71
2022/08/12 08:37:45;;;;;;;7.28;2.97;;;25.20;54.70;;;;;;5011696;28;20180;-71
2022/08/12 08:42:55;;;;;;;4.95;2.75;;;25.20;54.70;;;;;;5011425;28;20536;-70
2022/08/12 08:45:20;;;;;;;5.00;2.67;;;25.20;54.70;;;;;;5012014;28;20173;-71
2022/08/12 08:47:47;;;;;;;8.40;3.08;;;25.20;54.70;;;;;;5011887;28;20211;-68
2022/08/12 08:50:14;;;;;;;4.10;2.58;;;25.20;54.70;;;;;;5011489;28;20643;-69
2022/08/12 08:52:40;;;;;;;7.47;3.22;;;25.20;54.60;;;;;;5012062;28;20202;-68
2022/08/12 08:55:09;;;;;;;5.65;3.03;;;25.20;54.50;;;;;;5011723;28;20536;-68
2022/08/12 08:57:35;;;;;;;3.83;2.90;;;25.30;54.60;;;;;;5011940;28;20176;-70
2022/08/12 09:00:01;;;;;;;5.10;2.80;;;25.20;54.60;;;;;;5015451;28;20208;-70
2022/08/12 09:02:27;;;;;;;5.50;2.47;;;25.20;54.50;;;;;;5011915;28;20173;-71
2022/08/12 09:04:52;;;;;;;5.15;2.65;;;25.30;54.50;;;;;;5011184;28;20208;-69
2022/08/12 09:07:19;;;;;;;10.32;3.03;;;25.30;54.60;;;;;;5012036;28;20208;-74
2022/08/12 09:09:45;;;;;;;6.70;3.22;;;25.30;55.00;;;;;;5011596;28;20588;-71
2022/08/12 09:14:54;;;;;;;6.75;2.58;;;25.30;54.60;;;;;;5011959;28;20233;-70
2022/08/12 09:17:21;;;;;;;7.93;2.58;;;25.30;54.50;;;;;;5012029;28;20181;-72
2022/08/12 09:19:47;;;;;;;3.47;2.58;;;25.40;54.50;;;;;;5011395;28;20176;-70
2022/08/12 09:22:13;;;;;;;4.38;2.40;;;25.30;54.20;;;;;;5011962;28;20188;-71
2022/08/12 09:24:38;;;;;;;5.60;2.60;;;25.30;54.00;;;;;;5012015;28;20189;-70
2022/08/12 09:27:05;;;;;;;4.53;2.88;;;25.30;53.80;;;;;;5015185;28;20306;-70
2022/08/12 09:29:32;;;;;;;5.38;3.17;;;25.40;53.70;;;;;;5015477;28;20174;-70
2022/08/12 09:31:58;;;;;;;5.10;2.92;;;25.40;53.60;;;;;;5014616;28;20176;-69
2022/08/12 09:34:26;;;;;;;5.65;2.75;;;25.30;53.60;;;;;;5014920;28;20434;-70
2022/08/12 09:36:52;;;;;;;4.78;3.08;;;25.40;53.70;;;;;;5015483;28;20180;-71
2022/08/12 09:39:17;;;;;;;3.38;3.00;;;25.40;53.80;;;;;;5014752;28;20184;-70
2022/08/12 09:41:43;;;;;;;5.72;3.20;;;25.40;54.00;;;;;;5015349;28;20627;-70
2022/08/12 09:46:53;;;;;;;3.60;2.60;;;25.50;54.60;;;;;;5014318;28;20215;-69
2022/08/12 09:49:20;;;;;;;5.10;3.10;;;25.40;54.40;;;;;;5015276;28;20176;-72
2022/08/12 09:51:46;;;;;;;3.85;2.70;;;25.50;54.40;;;;;;5014994;28;20184;-69
2022/08/12 09:54:12;;;;;;;3.35;2.97;;;25.40;54.30;;;;;;5020565;28;20180;-70
2022/08/12 09:56:41;;;;;;;5.03;3.17;;;25.50;54.30;;;;;;5034668;28;20207;-70
2022/08/12 09:59:08;;;;;;;4.22;2.67;;;25.50;54.20;;;;;;5033933;28;20266;-69
2022/08/12 10:01:37;;;;;;;6.95;2.83;;;25.50;54.20;;;;;;5033745;28;20708;-70
2022/08/12 10:04:04;;;;;;;4.68;2.70;;;25.50;54.10;;;;;;5034486;28;20179;-70
2022/08/12 10:06:30;;;;;;;4.35;3.03;;;25.50;54.10;;;;;;5034486;28;20204;-78
2022/08/12 10:08:55;;;;;;;3.67;2.97;;;25.50;53.90;;;;;;5033911;28;20203;-73
2022/08/12 10:14:05;;;;;;;3.55;2.47;;;25.50;53.90;;;;;;5033449;28;20179;-74
2022/08/12 10:16:33;;;;;;;3.05;2.50;;;25.60;53.80;;;;;;5034247;28;20172;-73
2022/08/12 10:19:00;;;;;;;2.95;2.63;;;25.50;53.70;;;;;;5034188;28;20556;-71
2022/08/12 10:21:36;;;;;;;4.32;3.05;;;25.60;53.90;;;;;;5033571;28;20262;-73
2022/08/12 10:24:05;;;;;;;4.28;2.50;;;25.60;53.80;;;;;;5034059;28;20261;-71
2022/08/12 10:32:02;;;;;;;4.90;2.40;;;25.60;53.60;;;;;;5034001;28;20175;-72
2022/08/12 10:34:27;;;;;;;2.88;2.58;;;25.60;53.60;;;;;;5033996;28;20191;-74
2022/08/12 10:36:57;;;;;;;4.70;2.40;;;25.60;53.50;;;;;;5032260;28;20333;-72
2022/08/12 10:39:25;;;;;;;2.72;2.38;;;25.70;53.50;;;;;;5033821;28;20657;-73
2022/08/12 10:44:35;;;;;;;4.70;2.70;;;25.60;53.50;;;;;;5033806;28;20558;-69
2022/08/12 10:47:01;;;;;;;3.53;2.72;;;25.60;53.50;;;;;;5033363;28;20206;-68
2022/08/12 10:49:33;;;;;;;3.75;2.40;;;25.60;53.50;;;;;;5032855;28;20168;-71
2022/08/12 10:52:00;;;;;;;7.20;2.92;;;25.70;53.60;;;;;;5033646;28;20215;-73
2022/08/12 10:54:26;;;;;;;6.47;2.80;;;25.60;53.90;;;;;;5033670;28;20171;-70
2022/08/12 10:56:52;;;;;;;6.95;2.58;;;25.70;53.80;;;;;;5032766;28;20590;-71
2022/08/12 10:59:20;;;;;;;6.88;2.78;;;25.70;53.80;;;;;;5033653;28;20175;-74
2022/08/12 11:01:46;;;;;;;5.60;3.28;;;25.70;53.70;;;;;;5033411;28;20180;-72
2022/08/12 11:04:12;;;;;;;6.35;2.58;;;25.70;53.80;;;;;;5032643;28;20266;-76
2022/08/12 11:06:46;;;;;;;6.85;3.03;;;25.70;53.50;;;;;;5033311;28;20286;-76
2022/08/12 11:09:16;;;;;;;3.17;2.33;;;25.80;53.80;;;;;;5033397;28;20230;-77
2022/08/12 11:11:42;;;;;;;4.80;2.55;;;25.80;53.80;;;;;;5032974;28;20287;-72
2022/08/12 11:14:08;;;;;;;5.28;2.72;;;25.80;53.80;;;;;;5033040;28;20226;-74
2022/08/12 11:16:33;;;;;;;6.05;2.58;;;25.80;53.80;;;;;;5033188;28;20580;-72
2022/08/12 11:18:59;;;;;;;3.97;2.50;;;25.80;53.80;;;;;;5032572;28;20526;-71
2022/08/12 11:21:24;;;;;;;6.82;2.70;;;25.80;53.80;;;;;;5033028;28;20179;-71
2022/08/12 11:23:50;;;;;;;5.40;3.00;;;25.80;53.80;;;;;;5032956;28;20643;-72
2022/08/12 11:26:15;;;;;;;7.95;3.15;;;25.80;53.90;;;;;;5032209;28;20610;-74
2022/08/12 11:28:41;;;;;;;5.13;2.40;;;25.80;54.00;;;;;;5033069;28;20701;-77
2022/08/12 11:31:07;;;;;;;5.63;2.50;;;25.90;54.10;;;;;;5033032;28;20175;-78
2022/08/12 11:33:33;;;;;;;4.15;2.97;;;25.90;54.00;;;;;;5032348;28;20176;-60
2022/08/12 11:36:06;;;;;;;9.77;2.78;;;25.90;54.00;;;;;;5032893;28;20171;-54
2022/08/12 11:38:32;;;;;;;4.88;2.75;;;25.80;54.00;;;;;;5031901;28;20172;-55
2022/08/12 11:40:57;;;;;;;4.35;3.10;;;25.80;54.10;;;;;;5032509;28;20182;-60
2022/08/12 11:43:23;;;;;;;4.68;2.65;;;25.80;54.10;;;;;;5032403;28;20171;-55
2022/08/12 11:45:48;;;;;;;7.30;3.00;;;25.80;54.10;;;;;;5031738;28;20537;-57
2022/08/12 11:48:14;;;;;;;6.38;2.53;;;25.80;54.10;;;;;;5031936;28;20215;-59
2022/08/12 11:50:42;;;;;;;3.33;2.50;;;25.80;54.00;;;;;;5032318;28;20170;-58
2022/08/12 11:53:07;;;;;;;5.70;2.60;;;25.80;53.90;;;;;;5031804;28;20578;-57
2022/08/12 11:55:34;;;;;;;4.70;2.50;;;25.80;54.00;;;;;;5032822;28;20242;-60
2022/08/12 11:57:59;;;;;;;4.45;2.50;;;25.70;53.90;;;;;;5032519;28;20259;-56
2022/08/12 12:00:25;;;;;;;6.72;3.03;;;25.80;54.10;;;;;;5031482;28;20258;-59
2022/08/12 12:02:50;;;;;;;6.18;3.00;;;25.80;54.20;;;;;;5032372;28;20545;-58
2022/08/12 12:05:16;;;;;;;4.82;2.67;;;25.80;54.20;;;;;;5032500;28;20171;-59
2022/08/12 12:07:42;;;;;;;3.78;2.47;;;25.80;54.20;;;;;;5031546;28;20211;-60
2022/08/12 12:10:08;;;;;;;6.65;2.50;;;25.80;54.10;;;;;;5031554;28;20625;-60
2022/08/12 12:12:34;;;;;;;4.47;2.60;;;25.80;54.10;;;;;;5031951;28;20183;-59
2022/08/12 12:14:59;;;;;;;6.03;2.50;;;25.90;54.00;;;;;;5031302;28;20230;-59
2022/08/12 12:17:25;;;;;;;2.67;2.42;;;25.90;54.00;;;;;;5032386;28;20191;-60
2022/08/12 12:19:51;;;;;;;6.57;2.60;;;25.90;54.00;;;;;;5032147;28;20249;-58
2022/08/12 12:22:17;;;;;;;2.95;2.13;;;25.90;54.00;;;;;;5031377;28;20179;-56
2022/08/12 12:24:45;;;;;;;3.28;2.50;;;25.90;53.90;;;;;;5032188;28;20171;-54
2022/08/12 12:27:10;;;;;;;3.88;2.58;;;25.90;53.90;;;;;;5032199;28;20216;-54
2022/08/12 12:29:36;;;;;;;3.38;2.58;;;26.00;53.90;;;;;;5031581;28;20237;-55
2022/08/12 12:32:01;;;;;;;6.15;2.78;;;25.90;53.80;;;;;;5031732;28;20172;-56
2022/08/12 12:34:27;;;;;;;3.03;2.20;;;25.90;53.80;;;;;;5032215;28;20265;-58
2022/08/12 12:36:52;;;;;;;4.03;2.28;;;25.90;53.80;;;;;;5031084;28;20600;-55
2022/08/12 12:39:18;;;;;;;6.82;2.47;;;26.00;53.90;;;;;;5031923;28;20690;-58
2022/08/12 12:41:43;;;;;;;2.58;2.38;;;26.00;53.90;;;;;;5031051;28;20271;-54
2022/08/12 12:44:09;;;;;;;3.58;2.45;;;26.00;53.90;;;;;;5032159;28;20260;-54
2022/08/12 12:46:34;;;;;;;3.40;2.05;;;26.00;53.90;;;;;;5032158;28;20204;-54
2022/08/12 12:49:00;;;;;;;4.75;2.45;;;26.00;53.90;;;;;;5031284;28;20175;-56
2022/08/12 12:51:25;;;;;;;2.88;2.28;;;26.00;53.90;;;;;;5031851;28;20514;-58
2022/08/12 12:53:52;;;;;;;3.53;2.53;;;26.00;53.90;;;;;;5031598;28;20176;-59
2022/08/12 12:56:19;;;;;;;6.03;2.85;;;26.00;53.90;;;;;;5030895;28;20183;-59
2022/08/12 12:58:48;;;;;;;3.30;2.30;;;26.00;53.80;;;;;;5031540;28;20183;-56
2022/08/12 13:01:15;;;;;;;5.15;2.58;;;26.00;53.70;;;;;;5034974;28;20180;-58
2022/08/12 13:03:40;;;;;;;2.83;2.15;;;26.00;53.70;;;;;;5035082;28;20179;-58
2022/08/12 13:06:07;;;;;;;2.92;2.30;;;26.10;53.70;;;;;;5035586;28;20182;-60
2022/08/12 13:08:33;;;;;;;4.50;2.58;;;26.10;53.70;;;;;;5035639;28;20198;-60
2022/08/12 13:11:00;;;;;;;2.95;2.40;;;26.10;53.70;;;;;;5034616;28;20592;-59
2022/08/12 13:13:26;;;;;;;3.95;2.53;;;26.10;53.70;;;;;;5035659;28;20259;-58
2022/08/12 13:15:52;;;;;;;4.90;2.67;;;26.10;53.60;;;;;;5035210;28;20254;-60
2022/08/12 13:18:18;;;;;;;3.15;2.38;;;26.10;53.50;;;;;;5034792;28;20184;-60
2022/08/12 13:20:46;;;;;;;4.40;2.47;;;26.10;53.60;;;;;;5035400;28;20187;-60
2022/08/12 13:23:12;;;;;;;3.33;2.50;;;26.10;53.60;;;;;;5035372;28;20580;-59
2022/08/12 13:25:40;;;;;;;3.50;2.30;;;26.10;53.50;;;;;;5034497;28;20178;-62
2022/08/12 13:28:07;;;;;;;5.47;2.70;;;26.10;53.30;;;;;;5034791;28;20658;-59
2022/08/12 13:30:34;;;;;;;2.42;2.13;;;26.10;53.30;;;;;;5035233;28;20184;-57
2022/08/12 13:33:00;;;;;;;3.47;2.30;;;26.10;53.30;;;;;;5034530;28;20313;-59
2022/08/12 13:35:28;;;;;;;6.30;2.50;;;26.10;53.20;;;;;;5035123;28;20262;-59
2022/08/12 13:37:54;;;;;;;3.88;2.60;;;26.10;53.30;;;;;;5034125;28;20548;-57
2022/08/12 13:40:26;;;;;;;5.95;2.30;;;26.10;53.20;;;;;;5034853;28;20637;-56
2022/08/12 13:42:57;;;;;;;6.15;2.97;;;26.20;53.90;;;;;;5035139;28;20188;-57
2022/08/12 13:45:26;;;;;;;4.35;2.13;;;26.20;53.30;;;;;;5034463;28;20226;-54
2022/08/12 13:47:59;;;;;;;3.47;2.53;;;26.20;53.30;;;;;;5034729;28;20673;-53
2022/08/12 13:50:28;;;;;;;4.32;2.60;;;26.20;53.30;;;;;;5034858;28;20225;-56
2022/08/12 13:52:58;;;;;;;8.68;2.72;;;26.20;53.10;;;;;;5033773;28;20553;-53
2022/08/12 13:55:24;;;;;;;8.95;2.42;;;26.20;53.40;;;;;;5035409;28;20259;-56
2022/08/12 13:57:51;;;;;;;5.22;2.38;;;26.10;53.30;;;;;;5034489;28;20574;-56
2022/08/12 14:00:17;;;;;;;5.75;2.42;;;26.10;53.30;;;;;;5033764;28;20230;-56
2022/08/12 14:02:43;;;;;;;6.75;3.00;;;26.20;53.40;;;;;;5034654;28;20180;-56
2022/08/12 14:05:08;;;;;;;5.78;2.55;;;26.10;53.50;;;;;;5034309;28;20530;-56
2022/08/12 14:07:57;;;;;;;8.35;2.67;;;26.20;53.70;;;;;;5033493;28;20238;-54
2022/08/12 14:10:36;;;;;;;5.95;2.63;;;26.20;53.80;;;;;;5034135;28;20228;-58
2022/08/12 14:13:02;;;;;;;4.82;2.55;;;26.20;53.70;;;;;;5032551;28;20176;-55
2022/08/12 14:15:29;;;;;;;6.32;3.25;;;26.20;53.80;;;;;;5034314;28;20198;-58
2022/08/12 14:17:55;;;;;;;7.55;2.72;;;26.20;53.70;;;;;;5033958;28;20186;-58
2022/08/12 14:20:21;;;;;;;5.35;2.63;;;26.20;53.90;;;;;;5033493;28;20283;-58
2022/08/12 14:22:48;;;;;;;12.52;2.97;;;26.20;54.00;;;;;;5033584;28;20233;-58
2022/08/12 14:25:15;;;;;;;6.13;2.13;;;26.10;53.80;;;;;;5034363;28;20184;-58
2022/08/12 14:27:40;;;;;;;4.45;2.25;;;26.10;53.80;;;;;;5033525;28;20585;-57
2022/08/12 14:30:06;;;;;;;3.08;2.20;;;26.10;53.80;;;;;;5033642;28;20172;-58
2022/08/12 14:32:33;;;;;;;3.25;2.17;;;26.10;53.80;;;;;;5034022;28;20652;-58
2022/08/12 14:34:58;;;;;;;5.10;2.50;;;26.10;53.80;;;;;;5033409;28;20178;-58